sensor_id;sensor_type;location;lat;lon;timestamp;P1;durP1;ratioP1;P2;durP2;ratioP2
22573;SDS011;11453;52.052;20.430;2022-08-19T00:00:13;16.73;;;12.38;;
22573;SDS011;11453;52.052;20.430;2022-08-19T00:02:41;19.05;;;12.60;;
22573;SDS011;11453;52.052;20.430;2022-08-19T00:05:08;19.52;;;13.38;;
22573;SDS011;11453;52.052;20.430;2022-08-19T00:07:36;20.35;;;12.68;;
22573;SDS011;11453;52.052;20.430;2022-08-19T00:10:03;15.50;;;12.45;;
22573;SDS011;11453;52.052;20.430;2022-08-19T00:12:30;17.08;;;12.77;;
22573;SDS011;11453;52.052;20.430;2022-08-19T00:14:56;16.63;;;12.27;;
22573;SDS011;11453;52.052;20.430;2022-08-19T00:17:21;15.30;;;12.48;;
22573;SDS011;11453;52.052;20.430;2022-08-19T00:19:47;17.73;;;12.93;;
22573;SDS011;11453;52.052;20.430;2022-08-19T00:22:13;17.10;;;12.85;;
22573;SDS011;11453;52.052;20.430;2022-08-19T00:24:39;20.17;;;12.63;;
22573;SDS011;11453;52.052;20.430;2022-08-19T00:27:06;19.65;;;12.95;;
22573;SDS011;11453;52.052;20.430;2022-08-19T00:29:31;17.33;;;12.35;;
22573;SDS011;11453;52.052;20.430;2022-08-19T00:31:57;17.63;;;11.88;;
22573;SDS011;11453;52.052;20.430;2022-08-19T00:34:24;17.63;;;11.95;;
22573;SDS011;11453;52.052;20.430;2022-08-19T00:36:54;15.07;;;11.98;;
22573;SDS011;11453;52.052;20.430;2022-08-19T00:39:20;17.23;;;12.65;;
22573;SDS011;11453;52.052;20.430;2022-08-19T00:41:46;15.45;;;11.88;;
22573;SDS011;11453;52.052;20.430;2022-08-19T00:44:22;15.93;;;12.55;;
22573;SDS011;11453;52.052;20.430;2022-08-19T00:46:51;19.15;;;12.77;;
22573;SDS011;11453;52.052;20.430;2022-08-19T00:49:19;19.27;;;12.90;;
22573;SDS011;11453;52.052;20.430;2022-08-19T00:51:51;16.83;;;11.80;;
22573;SDS011;11453;52.052;20.430;2022-08-19T00:54:29;18.52;;;11.98;;
22573;SDS011;11453;52.052;20.430;2022-08-19T00:56:56;17.00;;;12.73;;
22573;SDS011;11453;52.052;20.430;2022-08-19T00:59:24;15.57;;;11.70;;
22573;SDS011;11453;52.052;20.430;2022-08-19T01:01:50;15.82;;;12.63;;
22573;SDS011;11453;52.052;20.430;2022-08-19T01:04:17;15.57;;;12.35;;
22573;SDS011;11453;52.052;20.430;2022-08-19T01:06:42;16.42;;;12.27;;
22573;SDS011;11453;52.052;20.430;2022-08-19T01:09:08;17.10;;;12.43;;
22573;SDS011;11453;52.052;20.430;2022-08-19T01:11:35;15.90;;;11.55;;
22573;SDS011;11453;52.052;20.430;2022-08-19T01:14:05;16.70;;;12.65;;
22573;SDS011;11453;52.052;20.430;2022-08-19T01:16:32;17.33;;;12.30;;
22573;SDS011;11453;52.052;20.430;2022-08-19T01:18:58;16.58;;;12.27;;
22573;SDS011;11453;52.052;20.430;2022-08-19T01:23:59;15.70;;;12.05;;
22573;SDS011;11453;52.052;20.430;2022-08-19T01:26:25;18.13;;;12.20;;
22573;SDS011;11453;52.052;20.430;2022-08-19T01:28:52;15.70;;;11.20;;
22573;SDS011;11453;52.052;20.430;2022-08-19T01:31:21;18.05;;;12.52;;
22573;SDS011;11453;52.052;20.430;2022-08-19T01:33:52;16.42;;;11.68;;
22573;SDS011;11453;52.052;20.430;2022-08-19T01:36:40;15.38;;;11.73;;
22573;SDS011;11453;52.052;20.430;2022-08-19T01:39:12;16.35;;;11.90;;
22573;SDS011;11453;52.052;20.430;2022-08-19T01:41:41;18.58;;;12.13;;
22573;SDS011;11453;52.052;20.430;2022-08-19T01:44:07;16.63;;;12.00;;
22573;SDS011;11453;52.052;20.430;2022-08-19T01:46:35;15.70;;;11.65;;
22573;SDS011;11453;52.052;20.430;2022-08-19T01:49:02;15.75;;;12.38;;
22573;SDS011;11453;52.052;20.430;2022-08-19T01:51:28;15.43;;;11.10;;
22573;SDS011;11453;52.052;20.430;2022-08-19T01:53:55;16.77;;;11.32;;
22573;SDS011;11453;52.052;20.430;2022-08-19T01:56:21;16.02;;;12.00;;
22573;SDS011;11453;52.052;20.430;2022-08-19T01:58:49;17.08;;;11.55;;
22573;SDS011;11453;52.052;20.430;2022-08-19T02:01:19;17.42;;;12.18;;
22573;SDS011;11453;52.052;20.430;2022-08-19T02:03:45;16.77;;;11.57;;
22573;SDS011;11453;52.052;20.430;2022-08-19T02:06:11;13.60;;;11.60;;
22573;SDS011;11453;52.052;20.430;2022-08-19T02:08:37;18.33;;;11.98;;
22573;SDS011;11453;52.052;20.430;2022-08-19T02:11:03;15.38;;;12.35;;
22573;SDS011;11453;52.052;20.430;2022-08-19T02:13:29;15.93;;;12.32;;
22573;SDS011;11453;52.052;20.430;2022-08-19T02:15:55;15.95;;;11.35;;
22573;SDS011;11453;52.052;20.430;2022-08-19T02:18:21;17.42;;;12.00;;
22573;SDS011;11453;52.052;20.430;2022-08-19T02:20:46;16.23;;;12.18;;
22573;SDS011;11453;52.052;20.430;2022-08-19T02:23:13;16.27;;;12.30;;
22573;SDS011;11453;52.052;20.430;2022-08-19T02:25:39;17.58;;;12.20;;
22573;SDS011;11453;52.052;20.430;2022-08-19T02:28:06;17.17;;;12.73;;
22573;SDS011;11453;52.052;20.430;2022-08-19T02:30:32;18.08;;;12.52;;
22573;SDS011;11453;52.052;20.430;2022-08-19T02:32:58;15.77;;;11.98;;
22573;SDS011;11453;52.052;20.430;2022-08-19T02:35:24;18.73;;;12.48;;
22573;SDS011;11453;52.052;20.430;2022-08-19T02:37:50;17.02;;;12.48;;
22573;SDS011;11453;52.052;20.430;2022-08-19T02:40:34;22.40;;;13.27;;
22573;SDS011;11453;52.052;20.430;2022-08-19T02:43:05;17.17;;;12.15;;
22573;SDS011;11453;52.052;20.430;2022-08-19T02:45:33;17.58;;;12.68;;
22573;SDS011;11453;52.052;20.430;2022-08-19T02:48:00;19.27;;;13.05;;
22573;SDS011;11453;52.052;20.430;2022-08-19T02:50:26;18.48;;;13.02;;
22573;SDS011;11453;52.052;20.430;2022-08-19T02:52:52;19.70;;;12.63;;
22573;SDS011;11453;52.052;20.430;2022-08-19T02:55:18;16.83;;;12.20;;
22573;SDS011;11453;52.052;20.430;2022-08-19T02:57:43;17.60;;;13.07;;
22573;SDS011;11453;52.052;20.430;2022-08-19T03:00:09;17.67;;;12.85;;
22573;SDS011;11453;52.052;20.430;2022-08-19T03:02:38;18.25;;;13.05;;
22573;SDS011;11453;52.052;20.430;2022-08-19T03:05:05;20.17;;;13.10;;
22573;SDS011;11453;52.052;20.430;2022-08-19T03:07:34;21.13;;;12.82;;
22573;SDS011;11453;52.052;20.430;2022-08-19T03:10:00;17.20;;;12.82;;
22573;SDS011;11453;52.052;20.430;2022-08-19T03:12:26;18.73;;;13.20;;
22573;SDS011;11453;52.052;20.430;2022-08-19T03:14:52;19.98;;;13.60;;
22573;SDS011;11453;52.052;20.430;2022-08-19T03:17:17;16.65;;;13.15;;
22573;SDS011;11453;52.052;20.430;2022-08-19T03:19:43;18.63;;;13.88;;
22573;SDS011;11453;52.052;20.430;2022-08-19T03:22:09;19.30;;;13.60;;
22573;SDS011;11453;52.052;20.430;2022-08-19T03:24:35;17.98;;;13.93;;
22573;SDS011;11453;52.052;20.430;2022-08-19T03:27:00;16.40;;;13.48;;
22573;SDS011;11453;52.052;20.430;2022-08-19T03:29:29;18.65;;;14.55;;
22573;SDS011;11453;52.052;20.430;2022-08-19T03:32:00;19.40;;;14.35;;
22573;SDS011;11453;52.052;20.430;2022-08-19T03:34:29;20.85;;;14.07;;
22573;SDS011;11453;52.052;20.430;2022-08-19T03:36:56;20.42;;;14.40;;
22573;SDS011;11453;52.052;20.430;2022-08-19T03:39:25;22.15;;;13.95;;
22573;SDS011;11453;52.052;20.430;2022-08-19T03:41:52;19.50;;;14.15;;
22573;SDS011;11453;52.052;20.430;2022-08-19T03:44:22;18.95;;;13.77;;
22573;SDS011;11453;52.052;20.430;2022-08-19T03:46:54;18.02;;;13.40;;
22573;SDS011;11453;52.052;20.430;2022-08-19T03:49:22;19.58;;;14.60;;
22573;SDS011;11453;52.052;20.430;2022-08-19T03:51:49;19.45;;;14.25;;
22573;SDS011;11453;52.052;20.430;2022-08-19T03:54:17;18.08;;;14.50;;
22573;SDS011;11453;52.052;20.430;2022-08-19T03:56:44;20.73;;;14.30;;
22573;SDS011;11453;52.052;20.430;2022-08-19T03:59:12;18.30;;;13.88;;
22573;SDS011;11453;52.052;20.430;2022-08-19T04:01:41;18.20;;;13.90;;
22573;SDS011;11453;52.052;20.430;2022-08-19T04:04:06;18.90;;;13.90;;
22573;SDS011;11453;52.052;20.430;2022-08-19T04:06:33;17.95;;;13.35;;
22573;SDS011;11453;52.052;20.430;2022-08-19T04:09:01;19.70;;;14.10;;
22573;SDS011;11453;52.052;20.430;2022-08-19T04:11:30;21.42;;;14.07;;
22573;SDS011;11453;52.052;20.430;2022-08-19T04:13:59;17.95;;;14.95;;
22573;SDS011;11453;52.052;20.430;2022-08-19T04:16:25;20.10;;;14.70;;
22573;SDS011;11453;52.052;20.430;2022-08-19T04:18:55;20.58;;;14.18;;
22573;SDS011;11453;52.052;20.430;2022-08-19T04:21:25;19.10;;;13.88;;
22573;SDS011;11453;52.052;20.430;2022-08-19T04:23:51;19.77;;;14.40;;
22573;SDS011;11453;52.052;20.430;2022-08-19T04:26:20;20.15;;;13.13;;
22573;SDS011;11453;52.052;20.430;2022-08-19T04:28:48;17.65;;;13.50;;
22573;SDS011;11453;52.052;20.430;2022-08-19T04:31:15;18.25;;;13.10;;
22573;SDS011;11453;52.052;20.430;2022-08-19T04:33:43;18.92;;;13.30;;
22573;SDS011;11453;52.052;20.430;2022-08-19T04:36:15;20.52;;;12.98;;
22573;SDS011;11453;52.052;20.430;2022-08-19T04:38:49;19.33;;;13.68;;
22573;SDS011;11453;52.052;20.430;2022-08-19T04:41:15;17.70;;;13.27;;
22573;SDS011;11453;52.052;20.430;2022-08-19T04:43:59;15.82;;;13.50;;
22573;SDS011;11453;52.052;20.430;2022-08-19T04:46:27;16.13;;;13.15;;
22573;SDS011;11453;52.052;20.430;2022-08-19T04:48:55;20.00;;;13.38;;
22573;SDS011;11453;52.052;20.430;2022-08-19T04:51:22;17.13;;;12.50;;
22573;SDS011;11453;52.052;20.430;2022-08-19T04:53:48;17.30;;;13.32;;
22573;SDS011;11453;52.052;20.430;2022-08-19T04:56:15;16.05;;;12.70;;
22573;SDS011;11453;52.052;20.430;2022-08-19T04:58:42;19.23;;;13.10;;
22573;SDS011;11453;52.052;20.430;2022-08-19T05:01:27;18.00;;;13.55;;
22573;SDS011;11453;52.052;20.430;2022-08-19T05:03:54;18.60;;;12.68;;
22573;SDS011;11453;52.052;20.430;2022-08-19T05:06:21;18.75;;;13.13;;
22573;SDS011;11453;52.052;20.430;2022-08-19T05:08:48;18.38;;;13.30;;
22573;SDS011;11453;52.052;20.430;2022-08-19T05:11:18;19.27;;;14.82;;
22573;SDS011;11453;52.052;20.430;2022-08-19T05:13:46;17.45;;;13.73;;
22573;SDS011;11453;52.052;20.430;2022-08-19T05:16:14;19.35;;;13.48;;
22573;SDS011;11453;52.052;20.430;2022-08-19T05:18:42;22.20;;;14.43;;
22573;SDS011;11453;52.052;20.430;2022-08-19T05:21:26;18.13;;;14.02;;
22573;SDS011;11453;52.052;20.430;2022-08-19T05:24:11;18.70;;;13.30;;
22573;SDS011;11453;52.052;20.430;2022-08-19T05:26:39;23.55;;;15.43;;
22573;SDS011;11453;52.052;20.430;2022-08-19T05:29:07;19.48;;;14.80;;
22573;SDS011;11453;52.052;20.430;2022-08-19T05:31:33;19.80;;;13.85;;
22573;SDS011;11453;52.052;20.430;2022-08-19T05:34:00;18.30;;;13.55;;
22573;SDS011;11453;52.052;20.430;2022-08-19T05:36:26;18.80;;;12.40;;
22573;SDS011;11453;52.052;20.430;2022-08-19T05:38:54;18.52;;;13.75;;
22573;SDS011;11453;52.052;20.430;2022-08-19T05:41:22;19.65;;;14.48;;
22573;SDS011;11453;52.052;20.430;2022-08-19T05:43:54;18.60;;;14.10;;
22573;SDS011;11453;52.052;20.430;2022-08-19T05:46:21;16.58;;;12.98;;
22573;SDS011;11453;52.052;20.430;2022-08-19T05:48:47;19.63;;;14.60;;
22573;SDS011;11453;52.052;20.430;2022-08-19T05:51:13;20.05;;;13.27;;
22573;SDS011;11453;52.052;20.430;2022-08-19T05:53:41;17.70;;;12.70;;
22573;SDS011;11453;52.052;20.430;2022-08-19T05:56:11;16.98;;;12.15;;
22573;SDS011;11453;52.052;20.430;2022-08-19T05:58:40;19.55;;;12.07;;
22573;SDS011;11453;52.052;20.430;2022-08-19T06:01:14;17.38;;;12.18;;
22573;SDS011;11453;52.052;20.430;2022-08-19T06:03:41;16.92;;;12.52;;
22573;SDS011;11453;52.052;20.430;2022-08-19T06:06:08;16.33;;;12.50;;
22573;SDS011;11453;52.052;20.430;2022-08-19T06:08:35;14.98;;;12.30;;
22573;SDS011;11453;52.052;20.430;2022-08-19T06:11:23;16.23;;;12.00;;
22573;SDS011;11453;52.052;20.430;2022-08-19T06:14:05;16.13;;;12.45;;
22573;SDS011;11453;52.052;20.430;2022-08-19T06:16:33;16.55;;;11.90;;
22573;SDS011;11453;52.052;20.430;2022-08-19T06:19:01;17.75;;;12.07;;
22573;SDS011;11453;52.052;20.430;2022-08-19T06:21:28;14.63;;;12.13;;
22573;SDS011;11453;52.052;20.430;2022-08-19T06:23:54;17.92;;;12.55;;
22573;SDS011;11453;52.052;20.430;2022-08-19T06:26:21;17.90;;;12.50;;
22573;SDS011;11453;52.052;20.430;2022-08-19T06:28:48;17.38;;;11.50;;
22573;SDS011;11453;52.052;20.430;2022-08-19T06:31:17;17.95;;;11.55;;
22573;SDS011;11453;52.052;20.430;2022-08-19T06:33:46;17.80;;;11.10;;
22573;SDS011;11453;52.052;20.430;2022-08-19T06:38:55;15.25;;;11.93;;
22573;SDS011;11453;52.052;20.430;2022-08-19T06:41:24;15.32;;;11.88;;
22573;SDS011;11453;52.052;20.430;2022-08-19T06:43:51;20.15;;;11.90;;
22573;SDS011;11453;52.052;20.430;2022-08-19T06:46:17;16.58;;;11.45;;
22573;SDS011;11453;52.052;20.430;2022-08-19T06:48:46;17.33;;;11.30;;
22573;SDS011;11453;52.052;20.430;2022-08-19T06:51:13;15.15;;;11.63;;
22573;SDS011;11453;52.052;20.430;2022-08-19T06:53:41;18.27;;;11.88;;
22573;SDS011;11453;52.052;20.430;2022-08-19T06:56:12;15.07;;;11.63;;
22573;SDS011;11453;52.052;20.430;2022-08-19T06:58:39;14.93;;;11.57;;
22573;SDS011;11453;52.052;20.430;2022-08-19T07:01:05;16.77;;;11.60;;
22573;SDS011;11453;52.052;20.430;2022-08-19T07:03:32;15.93;;;11.57;;
22573;SDS011;11453;52.052;20.430;2022-08-19T07:06:06;19.92;;;12.52;;
22573;SDS011;11453;52.052;20.430;2022-08-19T07:08:37;17.77;;;12.65;;
22573;SDS011;11453;52.052;20.430;2022-08-19T07:11:09;17.27;;;11.48;;
22573;SDS011;11453;52.052;20.430;2022-08-19T07:13:38;18.17;;;13.40;;
22573;SDS011;11453;52.052;20.430;2022-08-19T07:18:31;16.88;;;11.85;;
22573;SDS011;11453;52.052;20.430;2022-08-19T07:23:36;21.52;;;14.18;;
22573;SDS011;11453;52.052;20.430;2022-08-19T07:26:06;15.65;;;12.48;;
22573;SDS011;11453;52.052;20.430;2022-08-19T07:28:37;15.88;;;11.30;;
22573;SDS011;11453;52.052;20.430;2022-08-19T07:31:04;17.58;;;12.90;;
22573;SDS011;11453;52.052;20.430;2022-08-19T07:33:34;15.32;;;10.45;;
22573;SDS011;11453;52.052;20.430;2022-08-19T07:36:02;16.00;;;10.25;;
22573;SDS011;11453;52.052;20.430;2022-08-19T07:38:32;15.98;;;11.13;;
22573;SDS011;11453;52.052;20.430;2022-08-19T07:40:58;18.75;;;12.25;;
22573;SDS011;11453;52.052;20.430;2022-08-19T07:43:24;15.10;;;10.95;;
22573;SDS011;11453;52.052;20.430;2022-08-19T07:45:51;15.90;;;10.30;;
22573;SDS011;11453;52.052;20.430;2022-08-19T07:48:21;16.67;;;10.90;;
22573;SDS011;11453;52.052;20.430;2022-08-19T07:50:53;15.77;;;10.88;;
22573;SDS011;11453;52.052;20.430;2022-08-19T07:53:22;17.75;;;10.98;;
22573;SDS011;11453;52.052;20.430;2022-08-19T07:55:49;15.30;;;11.30;;
22573;SDS011;11453;52.052;20.430;2022-08-19T07:58:15;16.73;;;10.20;;
22573;SDS011;11453;52.052;20.430;2022-08-19T08:00:45;14.30;;;10.25;;
22573;SDS011;11453;52.052;20.430;2022-08-19T08:03:14;18.23;;;11.07;;
22573;SDS011;11453;52.052;20.430;2022-08-19T08:05:41;15.88;;;9.88;;
22573;SDS011;11453;52.052;20.430;2022-08-19T08:08:26;15.93;;;10.40;;
22573;SDS011;11453;52.052;20.430;2022-08-19T08:11:10;15.63;;;9.63;;
22573;SDS011;11453;52.052;20.430;2022-08-19T08:13:36;18.08;;;10.00;;
22573;SDS011;11453;52.052;20.430;2022-08-19T08:16:02;23.27;;;11.10;;
22573;SDS011;11453;52.052;20.430;2022-08-19T08:18:28;17.88;;;10.00;;
22573;SDS011;11453;52.052;20.430;2022-08-19T08:20:55;16.00;;;10.23;;
22573;SDS011;11453;52.052;20.430;2022-08-19T08:23:21;14.15;;;10.27;;
22573;SDS011;11453;52.052;20.430;2022-08-19T08:25:47;16.30;;;9.57;;
22573;SDS011;11453;52.052;20.430;2022-08-19T08:28:13;14.38;;;9.90;;
22573;SDS011;11453;52.052;20.430;2022-08-19T08:30:40;16.48;;;10.55;;
22573;SDS011;11453;52.052;20.430;2022-08-19T08:33:07;14.90;;;10.40;;
22573;SDS011;11453;52.052;20.430;2022-08-19T08:35:33;16.85;;;10.80;;
22573;SDS011;11453;52.052;20.430;2022-08-19T08:37:59;15.55;;;10.13;;
22573;SDS011;11453;52.052;20.430;2022-08-19T08:43:09;12.70;;;9.70;;
22573;SDS011;11453;52.052;20.430;2022-08-19T08:46:01;14.55;;;9.85;;
22573;SDS011;11453;52.052;20.430;2022-08-19T08:48:42;13.05;;;9.13;;
22573;SDS011;11453;52.052;20.430;2022-08-19T08:51:39;17.30;;;9.13;;
22573;SDS011;11453;52.052;20.430;2022-08-19T08:54:08;16.35;;;9.95;;
22573;SDS011;11453;52.052;20.430;2022-08-19T08:56:40;17.40;;;10.50;;
22573;SDS011;11453;52.052;20.430;2022-08-19T08:59:10;13.15;;;9.52;;
22573;SDS011;11453;52.052;20.430;2022-08-19T09:01:51;15.50;;;9.48;;
22573;SDS011;11453;52.052;20.430;2022-08-19T09:04:17;14.68;;;9.25;;
22573;SDS011;11453;52.052;20.430;2022-08-19T09:09:18;13.73;;;9.23;;
22573;SDS011;11453;52.052;20.430;2022-08-19T09:17:23;13.52;;;8.52;;
22573;SDS011;11453;52.052;20.430;2022-08-19T09:19:55;12.85;;;8.30;;
22573;SDS011;11453;52.052;20.430;2022-08-19T09:22:23;16.95;;;8.57;;
22573;SDS011;11453;52.052;20.430;2022-08-19T09:24:52;12.40;;;9.20;;
22573;SDS011;11453;52.052;20.430;2022-08-19T09:27:21;11.15;;;8.43;;
22573;SDS011;11453;52.052;20.430;2022-08-19T09:29:51;13.88;;;8.48;;
22573;SDS011;11453;52.052;20.430;2022-08-19T09:32:18;16.77;;;10.50;;
22573;SDS011;11453;52.052;20.430;2022-08-19T09:34:45;16.10;;;9.73;;
22573;SDS011;11453;52.052;20.430;2022-08-19T09:37:11;17.65;;;10.88;;
22573;SDS011;11453;52.052;20.430;2022-08-19T09:39:37;13.95;;;8.93;;
22573;SDS011;11453;52.052;20.430;2022-08-19T09:42:05;15.45;;;9.20;;
22573;SDS011;11453;52.052;20.430;2022-08-19T09:44:39;15.10;;;10.05;;
22573;SDS011;11453;52.052;20.430;2022-08-19T09:47:05;14.73;;;8.00;;
22573;SDS011;11453;52.052;20.430;2022-08-19T09:49:32;10.77;;;8.10;;
22573;SDS011;11453;52.052;20.430;2022-08-19T09:51:58;12.63;;;8.75;;
22573;SDS011;11453;52.052;20.430;2022-08-19T09:54:25;14.82;;;7.53;;
22573;SDS011;11453;52.052;20.430;2022-08-19T09:56:51;11.98;;;8.10;;
22573;SDS011;11453;52.052;20.430;2022-08-19T09:59:17;12.65;;;8.48;;
22573;SDS011;11453;52.052;20.430;2022-08-19T10:01:43;14.63;;;8.48;;
22573;SDS011;11453;52.052;20.430;2022-08-19T10:04:09;12.30;;;8.07;;
22573;SDS011;11453;52.052;20.430;2022-08-19T10:06:36;12.57;;;7.97;;
22573;SDS011;11453;52.052;20.430;2022-08-19T10:09:04;12.88;;;8.45;;
22573;SDS011;11453;52.052;20.430;2022-08-19T10:11:33;13.68;;;7.78;;
22573;SDS011;11453;52.052;20.430;2022-08-19T10:14:00;14.30;;;7.72;;
22573;SDS011;11453;52.052;20.430;2022-08-19T10:16:27;13.60;;;8.13;;
22573;SDS011;11453;52.052;20.430;2022-08-19T10:18:53;16.95;;;8.98;;
22573;SDS011;11453;52.052;20.430;2022-08-19T10:21:24;12.98;;;8.25;;
22573;SDS011;11453;52.052;20.430;2022-08-19T10:23:53;9.48;;;6.93;;
22573;SDS011;11453;52.052;20.430;2022-08-19T10:26:23;12.35;;;7.97;;
22573;SDS011;11453;52.052;20.430;2022-08-19T10:28:51;13.77;;;7.63;;
22573;SDS011;11453;52.052;20.430;2022-08-19T10:31:24;11.40;;;8.02;;
22573;SDS011;11453;52.052;20.430;2022-08-19T10:33:52;12.13;;;8.10;;
22573;SDS011;11453;52.052;20.430;2022-08-19T10:36:23;12.20;;;7.32;;
22573;SDS011;11453;52.052;20.430;2022-08-19T10:38:55;11.23;;;7.57;;
22573;SDS011;11453;52.052;20.430;2022-08-19T10:41:24;12.13;;;7.78;;
22573;SDS011;11453;52.052;20.430;2022-08-19T10:43:56;13.43;;;8.10;;
22573;SDS011;11453;52.052;20.430;2022-08-19T10:46:24;17.23;;;7.97;;
22573;SDS011;11453;52.052;20.430;2022-08-19T10:48:53;10.82;;;7.65;;
22573;SDS011;11453;52.052;20.430;2022-08-19T10:51:19;13.25;;;8.05;;
22573;SDS011;11453;52.052;20.430;2022-08-19T10:54:05;11.98;;;7.80;;
22573;SDS011;11453;52.052;20.430;2022-08-19T10:56:31;19.30;;;10.60;;
22573;SDS011;11453;52.052;20.430;2022-08-19T10:59:27;32.72;;;17.20;;
22573;SDS011;11453;52.052;20.430;2022-08-19T11:01:57;21.25;;;11.38;;
22573;SDS011;11453;52.052;20.430;2022-08-19T11:04:24;32.50;;;15.52;;
22573;SDS011;11453;52.052;20.430;2022-08-19T11:06:50;30.85;;;16.15;;
22573;SDS011;11453;52.052;20.430;2022-08-19T11:09:17;40.97;;;20.42;;
22573;SDS011;11453;52.052;20.430;2022-08-19T11:11:51;31.83;;;16.67;;
22573;SDS011;11453;52.052;20.430;2022-08-19T11:14:18;16.40;;;10.65;;
22573;SDS011;11453;52.052;20.430;2022-08-19T11:16:45;17.25;;;9.40;;
22573;SDS011;11453;52.052;20.430;2022-08-19T11:19:12;15.93;;;9.65;;
22573;SDS011;11453;52.052;20.430;2022-08-19T11:21:41;16.35;;;9.60;;
22573;SDS011;11453;52.052;20.430;2022-08-19T11:24:10;14.63;;;8.65;;
22573;SDS011;11453;52.052;20.430;2022-08-19T11:26:38;12.77;;;8.25;;
22573;SDS011;11453;52.052;20.430;2022-08-19T11:29:05;14.30;;;7.90;;
22573;SDS011;11453;52.052;20.430;2022-08-19T11:31:36;15.07;;;7.88;;
22573;SDS011;11453;52.052;20.430;2022-08-19T11:34:05;15.45;;;8.30;;
22573;SDS011;11453;52.052;20.430;2022-08-19T11:36:33;13.77;;;7.75;;
22573;SDS011;11453;52.052;20.430;2022-08-19T11:38:59;15.88;;;8.65;;
22573;SDS011;11453;52.052;20.430;2022-08-19T11:41:29;11.00;;;6.65;;
22573;SDS011;11453;52.052;20.430;2022-08-19T11:43:55;13.05;;;8.02;;
22573;SDS011;11453;52.052;20.430;2022-08-19T11:46:21;12.25;;;7.38;;
22573;SDS011;11453;52.052;20.430;2022-08-19T11:48:48;11.32;;;7.00;;
22573;SDS011;11453;52.052;20.430;2022-08-19T11:51:19;13.85;;;7.20;;
22573;SDS011;11453;52.052;20.430;2022-08-19T11:53:46;15.27;;;8.18;;
22573;SDS011;11453;52.052;20.430;2022-08-19T11:56:13;14.75;;;7.65;;
22573;SDS011;11453;52.052;20.430;2022-08-19T11:58:38;12.00;;;7.60;;
22573;SDS011;11453;52.052;20.430;2022-08-19T12:01:07;11.15;;;6.97;;
22573;SDS011;11453;52.052;20.430;2022-08-19T12:03:36;14.80;;;7.35;;
22573;SDS011;11453;52.052;20.430;2022-08-19T12:06:05;10.52;;;7.10;;
22573;SDS011;11453;52.052;20.430;2022-08-19T12:08:32;12.48;;;6.80;;
22573;SDS011;11453;52.052;20.430;2022-08-19T12:10:58;12.00;;;6.85;;
22573;SDS011;11453;52.052;20.430;2022-08-19T12:13:26;10.95;;;8.00;;
22573;SDS011;11453;52.052;20.430;2022-08-19T12:15:53;13.38;;;8.00;;
22573;SDS011;11453;52.052;20.430;2022-08-19T12:18:19;12.40;;;7.00;;
22573;SDS011;11453;52.052;20.430;2022-08-19T12:20:45;14.70;;;8.00;;
22573;SDS011;11453;52.052;20.430;2022-08-19T12:23:11;12.75;;;7.57;;
22573;SDS011;11453;52.052;20.430;2022-08-19T12:25:37;11.45;;;7.40;;
22573;SDS011;11453;52.052;20.430;2022-08-19T12:28:20;10.05;;;7.03;;
22573;SDS011;11453;52.052;20.430;2022-08-19T12:30:47;10.60;;;6.65;;
22573;SDS011;11453;52.052;20.430;2022-08-19T12:33:15;11.05;;;7.45;;
22573;SDS011;11453;52.052;20.430;2022-08-19T12:35:41;11.23;;;7.05;;
22573;SDS011;11453;52.052;20.430;2022-08-19T12:38:10;8.88;;;6.72;;
22573;SDS011;11453;52.052;20.430;2022-08-19T12:40:36;10.30;;;6.60;;
22573;SDS011;11453;52.052;20.430;2022-08-19T12:43:02;13.75;;;6.88;;
22573;SDS011;11453;52.052;20.430;2022-08-19T12:45:29;11.55;;;6.18;;
22573;SDS011;11453;52.052;20.430;2022-08-19T12:47:54;9.77;;;5.80;;
22573;SDS011;11453;52.052;20.430;2022-08-19T12:50:20;9.75;;;6.57;;
22573;SDS011;11453;52.052;20.430;2022-08-19T12:52:46;11.73;;;6.80;;
22573;SDS011;11453;52.052;20.430;2022-08-19T12:55:13;12.45;;;5.97;;
22573;SDS011;11453;52.052;20.430;2022-08-19T12:57:39;9.57;;;5.75;;
22573;SDS011;11453;52.052;20.430;2022-08-19T13:00:07;8.93;;;6.13;;
22573;SDS011;11453;52.052;20.430;2022-08-19T13:02:42;9.77;;;6.00;;
22573;SDS011;11453;52.052;20.430;2022-08-19T13:05:10;10.05;;;5.60;;
22573;SDS011;11453;52.052;20.430;2022-08-19T13:07:40;8.48;;;5.15;;
22573;SDS011;11453;52.052;20.430;2022-08-19T13:10:09;13.15;;;6.07;;
22573;SDS011;11453;52.052;20.430;2022-08-19T13:12:37;9.40;;;6.05;;
22573;SDS011;11453;52.052;20.430;2022-08-19T13:15:04;8.55;;;5.95;;
22573;SDS011;11453;52.052;20.430;2022-08-19T13:17:30;8.20;;;5.18;;
22573;SDS011;11453;52.052;20.430;2022-08-19T13:19:58;9.00;;;5.47;;
22573;SDS011;11453;52.052;20.430;2022-08-19T13:22:23;9.85;;;5.15;;
22573;SDS011;11453;52.052;20.430;2022-08-19T13:24:49;10.95;;;6.03;;
22573;SDS011;11453;52.052;20.430;2022-08-19T13:27:15;9.25;;;5.65;;
22573;SDS011;11453;52.052;20.430;2022-08-19T13:29:41;11.38;;;6.90;;
22573;SDS011;11453;52.052;20.430;2022-08-19T13:32:25;10.23;;;6.15;;
22573;SDS011;11453;52.052;20.430;2022-08-19T13:35:09;10.68;;;6.00;;
22573;SDS011;11453;52.052;20.430;2022-08-19T13:37:35;12.98;;;7.00;;
22573;SDS011;11453;52.052;20.430;2022-08-19T13:40:16;11.75;;;5.78;;
22573;SDS011;11453;52.052;20.430;2022-08-19T13:42:50;11.57;;;5.57;;
22573;SDS011;11453;52.052;20.430;2022-08-19T13:45:18;9.20;;;5.65;;
22573;SDS011;11453;52.052;20.430;2022-08-19T13:47:46;10.98;;;6.70;;
22573;SDS011;11453;52.052;20.430;2022-08-19T13:50:21;10.63;;;7.40;;
22573;SDS011;11453;52.052;20.430;2022-08-19T13:52:52;9.40;;;5.63;;
22573;SDS011;11453;52.052;20.430;2022-08-19T13:55:18;8.55;;;5.95;;
22573;SDS011;11453;52.052;20.430;2022-08-19T13:57:44;11.77;;;6.57;;
22573;SDS011;11453;52.052;20.430;2022-08-19T14:00:16;13.27;;;6.68;;
22573;SDS011;11453;52.052;20.430;2022-08-19T14:02:43;9.00;;;5.80;;
22573;SDS011;11453;52.052;20.430;2022-08-19T14:05:15;10.75;;;6.10;;
22573;SDS011;11453;52.052;20.430;2022-08-19T14:07:41;10.20;;;6.28;;
22573;SDS011;11453;52.052;20.430;2022-08-19T14:10:08;9.50;;;5.40;;
22573;SDS011;11453;52.052;20.430;2022-08-19T14:12:35;9.80;;;5.80;;
22573;SDS011;11453;52.052;20.430;2022-08-19T14:15:02;9.38;;;5.50;;
22573;SDS011;11453;52.052;20.430;2022-08-19T14:17:29;8.70;;;5.63;;
22573;SDS011;11453;52.052;20.430;2022-08-19T14:19:58;11.77;;;5.90;;
22573;SDS011;11453;52.052;20.430;2022-08-19T14:22:37;8.88;;;5.38;;
22573;SDS011;11453;52.052;20.430;2022-08-19T14:25:04;12.32;;;6.35;;
22573;SDS011;11453;52.052;20.430;2022-08-19T14:27:35;11.05;;;5.65;;
22573;SDS011;11453;52.052;20.430;2022-08-19T14:30:09;8.85;;;5.82;;
22573;SDS011;11453;52.052;20.430;2022-08-19T14:32:36;10.55;;;6.68;;
22573;SDS011;11453;52.052;20.430;2022-08-19T14:35:03;11.98;;;6.38;;
22573;SDS011;11453;52.052;20.430;2022-08-19T14:37:29;11.25;;;6.05;;
22573;SDS011;11453;52.052;20.430;2022-08-19T14:39:55;9.70;;;6.88;;
22573;SDS011;11453;52.052;20.430;2022-08-19T14:42:20;13.40;;;7.15;;